Main page
METAR-TAF:

METAR-TAF

Airports :

Altenstadt, Germany

Altenstadt Air Base

latitude: 47-50N, longitude: 010-52E, elevation: 739 m

Current weather observation

The report was made 23 minutes ago, at 20:20 UTC
Wind 3 kt from the Northeast
Temperature 17°C
Humidity 94%
Pressure 1007 hPa

METAR: ETHA 272020Z AUTO 04003KT //// // ////// 17/16 Q1007 ///

Time: 22:43 (20:43 UTC)

Forecast

The report was made 4 hours and 22 minutes ago, at 16:21 UTC
Forecast valid from 27 at 15 UTC to 27 at 23 UTC
Wind 5 kt from the Northeast
Visibility 10 km or more
Few clouds at a height of 4000 ft
Scattered clouds at a height of 25000 ft
Temporary
from 27 at 15 UTC to 27 at 21 UTC
Wind 15 kt from variable directions with gusts up to 25 kt
Visibility: 1720 m
Scattered clouds at a height of 2000 ft
Broken clouds at a height of 3000 ft, Cumulonimbus.
thunderstorm, rain

TAF: ETHA 271621Z 2715/2723 04005KT 9999 NSW FEW040 SCT250 TEMPO 2715/2721 VRB15G25KT 4000 TSRA SCT020 BKN030CB CANCEL 1720

Weather observations and forecasts of more than 4000 airports (METAR and TAF reports).

The available stations are represented by yellow and red dots on the map.

Hover mouse over dot to see the name of the station.

Then click to see weather observations and forecasts.

To change the map : click on the green buttons with a black cross to zoom in, on the green button with a dash to zoom out, or on the green arrows for adjacent maps.


METAR-TAF: